createdAt,value
2022-09-06T00:02:31.259Z,67.25
2022-09-06T00:05:16.621Z,67.61
2022-09-06T00:08:02.900Z,67.69
2022-09-06T00:10:48.386Z,67.75
2022-09-06T00:13:34.265Z,67.72
2022-09-06T00:16:21.125Z,67.47
2022-09-06T00:19:06.676Z,67.44
2022-09-06T00:21:52.005Z,67.43
2022-09-06T00:24:37.290Z,67.49
2022-09-06T00:27:23.039Z,67.23
2022-09-06T00:30:08.578Z,67.50
2022-09-06T00:32:54.507Z,67.06
2022-09-06T00:35:39.744Z,67.01
2022-09-06T00:38:25.248Z,67.15
2022-09-06T00:41:11.962Z,67.31
2022-09-06T00:43:57.041Z,67.03
2022-09-06T00:46:45.183Z,67.19
2022-09-06T00:49:39.883Z,67.11
2022-09-06T00:52:26.294Z,66.95
2022-09-06T00:55:12.016Z,67.03
2022-09-06T00:57:57.638Z,67.13
2022-09-06T01:00:42.971Z,67.01
2022-09-06T01:03:28.282Z,66.87
2022-09-06T01:06:22.549Z,66.81
2022-09-06T01:09:37.133Z,66.94
2022-09-06T01:12:40.801Z,67.10
2022-09-06T01:15:42.076Z,66.90
2022-09-06T01:18:50.251Z,66.82
2022-09-06T01:21:45.377Z,66.63
2022-09-06T01:24:59.164Z,66.83
2022-09-06T01:28:04.546Z,66.81
2022-09-06T01:31:09.505Z,66.35
2022-09-06T01:34:07.152Z,67.32
2022-09-06T01:37:09.570Z,67.12
2022-09-06T01:39:56.124Z,67.05
2022-09-06T01:42:44.001Z,67.24
2022-09-06T01:45:49.366Z,66.79
2022-09-06T01:48:53.667Z,67.17
2022-09-06T01:51:51.031Z,66.65
2022-09-06T01:54:36.048Z,66.83
2022-09-06T01:57:21.451Z,66.65
2022-09-06T02:00:09.090Z,66.68
2022-09-06T02:03:13.468Z,66.40
2022-09-06T02:06:04.867Z,66.77
2022-09-06T02:08:53.204Z,66.64
2022-09-06T02:11:42.407Z,66.31
2022-09-06T02:14:30.302Z,66.10
2022-09-06T02:17:17.526Z,65.54
2022-09-06T02:20:09.039Z,65.57
2022-09-06T02:22:56.743Z,66.05
2022-09-06T02:25:51.081Z,65.72
2022-09-06T02:28:36.424Z,65.61
2022-09-06T02:31:25.171Z,64.84
2022-09-06T02:34:13.456Z,65.30
2022-09-06T02:36:59.910Z,64.84
2022-09-06T02:39:44.973Z,64.54
2022-09-06T02:42:30.465Z,64.51
2022-09-06T02:45:16.011Z,64.40
2022-09-06T02:48:01.568Z,64.40
2022-09-06T02:50:46.777Z,64.21
2022-09-06T02:53:32.302Z,63.75
2022-09-06T02:56:17.701Z,63.54
2022-09-06T02:59:05.415Z,63.19
2022-09-06T03:01:50.633Z,63.26
2022-09-06T03:04:35.708Z,62.70
2022-09-06T03:07:21.240Z,62.55
2022-09-06T03:10:06.653Z,62.18
2022-09-06T03:12:52.373Z,62.33
2022-09-06T03:15:37.945Z,62.29
2022-09-06T03:18:23.727Z,62.17
2022-09-06T03:21:09.222Z,61.72
2022-09-06T03:23:54.781Z,61.66
2022-09-06T03:26:40.180Z,61.72
2022-09-06T03:29:25.529Z,62.18
2022-09-06T03:32:11.056Z,61.77
2022-09-06T03:34:56.420Z,62.07
2022-09-06T03:37:41.448Z,61.76
2022-09-06T03:40:26.966Z,61.52
2022-09-06T03:43:12.651Z,61.48
2022-09-06T03:45:57.870Z,61.11
2022-09-06T03:48:43.086Z,61.17
2022-09-06T03:51:28.422Z,60.80
2022-09-06T03:54:13.917Z,60.97
2022-09-06T03:56:59.447Z,60.74
2022-09-06T03:59:44.592Z,60.83
2022-09-06T04:02:30.210Z,60.79
2022-09-06T04:05:16.489Z,60.59
2022-09-06T04:08:02.357Z,60.38
2022-09-06T04:10:49.768Z,60.47
2022-09-06T04:13:35.687Z,60.26
2022-09-06T04:16:21.135Z,60.62
2022-09-06T04:19:06.291Z,60.26
2022-09-06T04:21:51.712Z,60.41
2022-09-06T04:24:36.993Z,60.58
2022-09-06T04:27:22.424Z,59.95
2022-09-06T04:30:08.167Z,60.24
2022-09-06T04:32:53.249Z,60.21
2022-09-06T04:35:38.561Z,59.84
2022-09-06T04:38:24.808Z,60.23
2022-09-06T04:41:11.440Z,59.94
2022-09-06T04:43:56.966Z,59.69
2022-09-06T04:46:42.542Z,60.12
2022-09-06T04:49:27.997Z,60.39
2022-09-06T04:52:13.485Z,59.67
2022-09-06T04:54:58.907Z,59.66
2022-09-06T04:57:47.492Z,59.65
2022-09-06T05:00:35.709Z,59.77
2022-09-06T05:03:21.144Z,60.30
2022-09-06T05:06:10.485Z,59.25
2022-09-06T05:08:55.649Z,58.86
2022-09-06T05:11:40.829Z,59.13
2022-09-06T05:14:26.824Z,58.87
2022-09-06T05:17:14.679Z,59.71
2022-09-06T05:19:59.758Z,59.55
2022-09-06T05:22:51.958Z,59.14
2022-09-06T05:25:37.131Z,59.16
2022-09-06T05:28:23.047Z,58.56
2022-09-06T05:31:12.658Z,58.05
2022-09-06T05:33:58.559Z,58.00
2022-09-06T05:36:45.362Z,57.92
2022-09-06T05:39:31.509Z,57.99
2022-09-06T05:42:19.249Z,57.91
2022-09-06T05:45:06.714Z,58.08
2022-09-06T05:47:52.120Z,57.84
2022-09-06T05:50:37.376Z,57.96
2022-09-06T05:53:22.784Z,57.32
2022-09-06T05:56:08.483Z,57.81
2022-09-06T05:58:53.669Z,57.76
2022-09-06T06:01:47.146Z,57.53
2022-09-06T06:04:32.763Z,57.12
2022-09-06T06:07:18.219Z,57.25
2022-09-06T06:10:04.375Z,56.58
2022-09-06T06:12:49.974Z,56.62
2022-09-06T06:15:35.425Z,56.77
2022-09-06T06:18:20.858Z,56.57
2022-09-06T06:21:16.572Z,55.85
2022-09-06T06:24:03.393Z,55.22
2022-09-06T06:26:48.723Z,54.93
2022-09-06T06:29:34.255Z,54.33
2022-09-06T06:32:19.785Z,53.47
2022-09-06T06:35:05.544Z,53.42
2022-09-06T06:37:50.753Z,52.69
2022-09-06T06:40:36.100Z,52.20
2022-09-06T06:43:21.450Z,52.04
2022-09-06T06:46:08.673Z,51.49
2022-09-06T06:48:55.437Z,52.35
2022-09-06T06:51:41.381Z,52.35
2022-09-06T06:54:26.970Z,52.94
2022-09-06T06:57:12.660Z,52.85
2022-09-06T06:59:58.274Z,52.94
2022-09-06T07:02:44.009Z,53.27
2022-09-06T07:08:34.748Z,52.79
2022-09-06T07:11:21.716Z,52.75
2022-09-06T07:14:09.953Z,51.94
2022-09-06T07:16:58.556Z,51.82
2022-09-06T07:26:03.381Z,49.46
2022-09-06T07:28:51.638Z,49.34
2022-09-06T07:34:43.185Z,49.84
2022-09-06T07:37:28.436Z,49.75
2022-09-06T07:40:13.880Z,49.64
2022-09-06T07:42:59.321Z,50.17
2022-09-06T07:45:44.582Z,50.70
2022-09-06T07:48:31.186Z,51.78
2022-09-06T07:51:19.471Z,52.18
2022-09-06T07:57:12.038Z,53.14
2022-09-06T07:59:57.550Z,53.37
2022-09-06T08:02:42.790Z,53.15
2022-09-06T08:11:38.645Z,53.69
2022-09-06T08:14:23.864Z,54.03
2022-09-06T08:17:09.350Z,53.77
2022-09-06T08:19:54.888Z,54.44
2022-09-06T08:22:40.376Z,54.61
2022-09-06T08:25:25.821Z,54.46
2022-09-06T08:28:11.216Z,54.23
2022-09-06T08:31:04.901Z,53.69
2022-09-06T08:33:51.366Z,53.17
2022-09-06T08:36:36.417Z,52.25
2022-09-06T08:39:21.801Z,51.75
2022-09-06T08:42:08.114Z,52.19
2022-09-06T08:47:43.973Z,53.48
2022-09-06T08:50:29.641Z,53.30
2022-09-06T08:53:18.153Z,53.25
2022-09-06T08:56:13.826Z,53.32
2022-09-06T08:59:14.333Z,53.81
2022-09-06T09:02:06.581Z,53.00
2022-09-06T09:04:57.718Z,53.46
2022-09-06T09:07:50.174Z,53.46
2022-09-06T09:11:11.400Z,52.96
2022-09-06T09:13:59.498Z,52.91
2022-09-06T09:16:44.778Z,51.87
2022-09-06T09:19:33.391Z,51.65
2022-09-06T09:22:19.582Z,52.10
2022-09-06T09:25:05.405Z,51.23
2022-09-06T09:27:57.722Z,51.12
2022-09-06T09:30:48.762Z,50.68
2022-09-06T09:33:36.779Z,51.20
2022-09-06T09:36:22.351Z,52.95
2022-09-06T09:39:11.131Z,54.31
2022-09-06T09:41:56.286Z,54.42
2022-09-06T09:44:44.814Z,55.15
2022-09-06T09:47:31.452Z,56.02
2022-09-06T09:50:25.263Z,56.05
2022-09-06T09:53:12.029Z,56.87
2022-09-06T09:55:58.895Z,57.54
2022-09-06T09:58:44.417Z,57.60
2022-09-06T10:01:31.135Z,57.63
2022-09-06T10:07:27.551Z,58.30
2022-09-06T10:10:14.625Z,58.92
2022-09-06T10:13:07.070Z,59.02
2022-09-06T10:15:53.459Z,60.13
2022-09-06T10:18:43.611Z,62.10
2022-09-06T10:21:29.394Z,64.21
2022-09-06T10:24:28.104Z,68.96
2022-09-06T10:27:15.360Z,72.71
2022-09-06T10:30:02.740Z,75.25
2022-09-06T10:32:56.582Z,75.28
2022-09-06T10:35:42.130Z,74.24
2022-09-06T10:38:27.457Z,75.28
2022-09-06T10:41:18.739Z,75.89
2022-09-06T10:44:24.304Z,73.78
2022-09-06T10:47:11.702Z,71.59
2022-09-06T10:49:58.693Z,74.68
2022-09-06T10:52:45.518Z,71.04
2022-09-06T10:55:33.077Z,69.86
2022-09-06T10:58:26.718Z,72.52
2022-09-06T11:01:30.246Z,72.67
2022-09-06T11:04:21.512Z,72.76
2022-09-06T11:07:18.811Z,71.97
2022-09-06T11:10:10.342Z,73.39
2022-09-06T11:13:00.133Z,70.06
2022-09-06T11:15:51.359Z,68.27
2022-09-06T11:18:52.544Z,67.31
2022-09-06T11:21:56.852Z,63.28
2022-09-06T11:25:09.097Z,63.51
2022-09-06T11:27:58.144Z,64.19
2022-09-06T11:30:45.741Z,65.04
2022-09-06T11:33:38.440Z,64.70
2022-09-06T11:36:32.402Z,65.63
2022-09-06T11:42:43.929Z,67.93
2022-09-06T11:45:47.932Z,67.80
2022-09-06T11:48:34.650Z,67.39
2022-09-06T11:51:39.324Z,67.72
2022-09-06T11:54:28.661Z,69.48
2022-09-06T11:57:16.096Z,68.68
2022-09-06T12:00:04.006Z,71.32
2022-09-06T12:02:49.686Z,71.58
2022-09-06T12:05:55.087Z,71.00
2022-09-06T12:08:40.921Z,72.58
2022-09-06T12:11:30.466Z,72.79
2022-09-06T12:14:29.891Z,72.65
2022-09-06T12:17:19.657Z,72.30
2022-09-06T12:20:08.354Z,70.78
2022-09-06T12:22:53.884Z,73.03
2022-09-06T12:25:40.837Z,73.05
2022-09-06T12:28:35.065Z,71.47
2022-09-06T12:31:23.375Z,71.54
2022-09-06T12:34:14.422Z,71.03
2022-09-06T12:37:07.836Z,70.15
2022-09-06T12:40:02.386Z,69.38
2022-09-06T12:42:48.615Z,68.38
2022-09-06T12:45:34.036Z,67.46
2022-09-06T12:48:27.636Z,68.29
2022-09-06T12:51:20.554Z,66.53
2022-09-06T12:54:15.193Z,67.02
2022-09-06T12:57:12.401Z,68.87
2022-09-06T12:59:58.066Z,68.04
2022-09-06T13:02:56.621Z,68.82
2022-09-06T13:05:42.546Z,69.44
2022-09-06T13:08:34.590Z,71.79
2022-09-06T13:11:24.371Z,70.45
2022-09-06T13:14:14.167Z,72.39
2022-09-06T13:17:00.671Z,70.88
2022-09-06T13:19:46.181Z,71.08
2022-09-06T13:22:57.585Z,70.64
2022-09-06T13:25:50.330Z,71.13
2022-09-06T13:28:35.959Z,71.13
2022-09-06T13:31:21.664Z,70.81
2022-09-06T13:34:07.792Z,71.63
2022-09-06T13:36:54.903Z,70.67
2022-09-06T13:39:41.961Z,71.34
2022-09-06T13:42:30.250Z,70.60
2022-09-06T13:45:25.028Z,70.31
2022-09-06T13:48:28.382Z,69.89
2022-09-06T13:51:15.009Z,71.64
2022-09-06T13:54:12.347Z,70.00
2022-09-06T13:56:58.199Z,71.40
2022-09-06T13:59:43.659Z,70.38
2022-09-06T14:02:29.059Z,68.56
2022-09-06T14:05:16.618Z,68.94
2022-09-06T14:08:02.683Z,69.13
2022-09-06T14:10:48.719Z,70.43
2022-09-06T14:13:34.208Z,71.11
2022-09-06T14:16:20.272Z,72.99
2022-09-06T14:19:06.251Z,76.26
2022-09-06T14:21:52.582Z,76.24
2022-09-06T14:24:38.644Z,76.57
2022-09-06T14:27:24.648Z,77.70
2022-09-06T14:30:10.364Z,74.44
2022-09-06T14:32:55.583Z,75.24
2022-09-06T14:35:41.107Z,74.31
2022-09-06T14:38:26.970Z,75.54
2022-09-06T14:41:16.290Z,77.19
2022-09-06T14:44:01.550Z,75.88
2022-09-06T14:46:48.573Z,76.70
2022-09-06T14:49:34.557Z,75.76
2022-09-06T14:52:20.597Z,77.91
2022-09-06T14:55:06.222Z,76.73
2022-09-06T14:57:51.315Z,76.36
2022-09-06T15:00:36.733Z,79.02
2022-09-06T15:03:22.284Z,79.37
2022-09-06T15:06:08.958Z,81.89
2022-09-06T15:08:58.552Z,82.06
2022-09-06T15:11:45.778Z,81.92
2022-09-06T15:14:31.026Z,80.94
2022-09-06T15:17:16.558Z,80.85
2022-09-06T15:20:02.622Z,82.12
2022-09-06T15:22:56.347Z,81.88
2022-09-06T15:25:54.680Z,80.18
2022-09-06T15:28:41.373Z,82.10
2022-09-06T15:31:27.276Z,80.36
2022-09-06T15:34:12.805Z,79.17
2022-09-06T15:36:58.466Z,80.23
2022-09-06T15:39:44.359Z,79.85
2022-09-06T15:42:29.860Z,80.46
2022-09-06T15:45:15.797Z,80.87
2022-09-06T15:48:01.431Z,79.35
2022-09-06T15:53:16.236Z,79.58
2022-09-06T15:56:02.591Z,78.89
2022-09-06T15:58:47.769Z,78.35
2022-09-06T16:01:34.078Z,78.96
2022-09-06T16:04:19.817Z,79.40
2022-09-06T16:07:05.656Z,78.39
2022-09-06T16:09:50.872Z,78.33
2022-09-06T16:12:36.083Z,78.39
2022-09-06T16:15:22.114Z,76.37
2022-09-06T16:18:07.637Z,76.32
2022-09-06T16:20:52.924Z,75.72
2022-09-06T16:23:38.927Z,75.80
2022-09-06T16:26:25.186Z,76.09
2022-09-06T16:29:11.569Z,75.34
2022-09-06T16:31:59.722Z,74.64
2022-09-06T16:34:45.810Z,75.52
2022-09-06T16:37:32.449Z,74.98
2022-09-06T16:40:17.944Z,75.29
2022-09-06T16:43:03.613Z,74.92
2022-09-06T16:45:58.824Z,75.19
2022-09-06T16:48:49.861Z,75.16
2022-09-06T16:51:35.233Z,76.55
2022-09-06T16:54:20.633Z,76.88
2022-09-06T16:57:06.067Z,76.76
2022-09-06T16:59:52.040Z,77.08
2022-09-06T17:02:37.218Z,77.11
2022-09-06T17:05:22.520Z,77.56
2022-09-06T17:08:08.315Z,78.22
2022-09-06T17:10:53.651Z,78.58
2022-09-06T17:13:38.869Z,78.69
2022-09-06T17:16:43.412Z,78.73
2022-09-06T17:19:29.714Z,78.54
2022-09-06T17:22:15.285Z,78.67
2022-09-06T17:25:00.778Z,79.08
2022-09-06T17:27:46.107Z,79.59
2022-09-06T17:30:32.101Z,79.66
2022-09-06T17:33:17.826Z,79.75
2022-09-06T17:36:11.547Z,79.18
2022-09-06T17:39:20.924Z,79.64
2022-09-06T17:42:06.593Z,79.53
2022-09-06T17:44:51.716Z,79.37
2022-09-06T17:47:37.056Z,80.71
2022-09-06T17:50:22.318Z,82.26
2022-09-06T17:53:07.576Z,83.65
2022-09-06T17:55:53.018Z,84.37
2022-09-06T17:58:38.524Z,82.99
2022-09-06T18:01:24.997Z,84.08
2022-09-06T18:04:10.959Z,84.63
2022-09-06T18:06:56.344Z,84.51
2022-09-06T18:09:41.718Z,84.85
2022-09-06T18:12:28.985Z,85.98
2022-09-06T18:15:14.156Z,85.79
2022-09-06T18:17:59.672Z,85.76
2022-09-06T18:20:44.763Z,85.84
2022-09-06T18:23:30.691Z,87.35
2022-09-06T18:26:16.836Z,88.01
2022-09-06T18:29:02.123Z,87.17
2022-09-06T18:31:47.659Z,87.04
2022-09-06T18:34:33.067Z,87.73
2022-09-06T18:37:18.531Z,88.44
2022-09-06T18:40:04.996Z,88.67
2022-09-06T18:42:50.528Z,89.31
2022-09-06T18:45:35.785Z,89.09
2022-09-06T18:48:20.978Z,88.99
2022-09-06T18:51:07.857Z,90.04
2022-09-06T18:53:55.188Z,89.73
2022-09-06T18:56:40.977Z,90.02
2022-09-06T18:59:26.209Z,90.07
2022-09-06T19:02:11.697Z,90.16
2022-09-06T19:04:59.103Z,89.96
2022-09-06T19:07:44.573Z,89.95
2022-09-06T19:10:30.227Z,90.79
2022-09-06T19:13:15.699Z,91.13
2022-09-06T19:16:01.347Z,90.85
2022-09-06T19:18:46.570Z,91.53
2022-09-06T19:21:32.093Z,92.15
2022-09-06T19:24:17.548Z,91.45
2022-09-06T19:27:03.022Z,91.64
2022-09-06T19:29:48.539Z,91.72
2022-09-06T19:32:34.049Z,92.13
2022-09-06T19:35:19.640Z,92.86
2022-09-06T19:38:05.080Z,93.59
2022-09-06T19:40:50.476Z,92.85
2022-09-06T19:43:35.661Z,93.09
2022-09-06T19:46:21.491Z,94.15
2022-09-06T19:49:09.396Z,94.44
2022-09-06T19:51:54.817Z,93.69
2022-09-06T19:54:39.907Z,93.93
2022-09-06T19:57:25.419Z,93.70
2022-09-06T20:00:11.018Z,94.12
2022-09-06T20:02:56.197Z,93.85
2022-09-06T20:05:41.358Z,93.22
2022-09-06T20:08:26.946Z,93.24
2022-09-06T20:11:12.755Z,93.86
2022-09-06T20:13:59.039Z,93.58
2022-09-06T20:16:44.369Z,93.84
2022-09-06T20:19:29.814Z,93.73
2022-09-06T20:22:15.308Z,93.92
2022-09-06T20:25:00.860Z,93.96
2022-09-06T20:27:46.061Z,95.06
2022-09-06T20:30:31.702Z,95.67
2022-09-06T20:33:17.338Z,94.94
2022-09-06T20:36:03.977Z,95.01
2022-09-06T20:38:49.781Z,95.57
2022-09-06T20:41:35.352Z,95.54
2022-09-06T20:44:20.970Z,95.71
2022-09-06T20:47:06.462Z,95.79
2022-09-06T20:49:52.063Z,95.68
2022-09-06T20:52:37.247Z,95.95
2022-09-06T20:55:22.631Z,95.55
2022-09-06T20:58:08.040Z,96.19
2022-09-06T21:00:53.882Z,96.50
2022-09-06T21:03:40.079Z,96.31
2022-09-06T21:06:26.928Z,96.40
2022-09-06T21:09:13.283Z,96.51
2022-09-06T21:11:59.025Z,96.40
2022-09-06T21:14:44.379Z,96.82
2022-09-06T21:17:29.856Z,96.64
2022-09-06T21:20:15.566Z,97.43
2022-09-06T21:23:00.638Z,97.79
2022-09-06T21:25:52.792Z,97.58
2022-09-06T21:28:39.752Z,97.17
2022-09-06T21:31:26.380Z,96.98
2022-09-06T21:34:16.823Z,97.26
2022-09-06T21:37:02.673Z,97.57
2022-09-06T21:39:47.812Z,98.28
2022-09-06T21:42:33.124Z,97.67
2022-09-06T21:45:18.798Z,98.34
2022-09-06T21:48:04.278Z,98.11
2022-09-06T21:50:50.983Z,98.39
2022-09-06T21:53:36.936Z,98.55
2022-09-06T21:56:23.784Z,98.52
2022-09-06T21:59:09.316Z,99.21
2022-09-06T22:01:54.654Z,98.67
2022-09-06T22:04:40.172Z,99.27
2022-09-06T22:07:25.963Z,99.82
2022-09-06T22:10:11.436Z,99.60
2022-09-06T22:12:57.353Z,100.00
2022-09-06T22:15:43.177Z,99.86
2022-09-06T22:18:29.002Z,99.88
2022-09-06T22:21:19.984Z,100.00
2022-09-06T22:24:07.342Z,100.00
2022-09-06T22:26:52.767Z,100.00
2022-09-06T22:29:38.252Z,100.00
2022-09-06T22:32:24.270Z,100.00
2022-09-06T22:35:10.649Z,100.00
2022-09-06T22:37:55.932Z,100.00
2022-09-06T22:40:41.410Z,100.00
2022-09-06T22:43:27.296Z,99.95
2022-09-06T22:46:12.973Z,100.00
2022-09-06T22:48:59.120Z,100.00
2022-09-06T22:51:44.472Z,100.00
2022-09-06T22:54:30.104Z,100.00
2022-09-06T22:57:15.253Z,100.00
2022-09-06T23:00:01.984Z,100.00
2022-09-06T23:02:47.343Z,100.00
2022-09-06T23:05:33.702Z,99.91
2022-09-06T23:08:18.912Z,99.86
2022-09-06T23:11:06.981Z,99.21
2022-09-06T23:13:56.729Z,99.18
2022-09-06T23:16:42.976Z,98.92
2022-09-06T23:19:28.589Z,99.49
2022-09-06T23:22:14.173Z,98.98
2022-09-06T23:24:59.620Z,99.29
2022-09-06T23:27:45.230Z,99.92
2022-09-06T23:30:30.825Z,99.75
2022-09-06T23:33:16.907Z,98.57
2022-09-06T23:36:03.670Z,97.50
2022-09-06T23:38:49.686Z,97.02
2022-09-06T23:41:35.348Z,97.01
2022-09-06T23:44:21.269Z,97.14
2022-09-06T23:47:07.237Z,96.46
2022-09-06T23:49:53.001Z,96.18
2022-09-06T23:52:39.701Z,95.75
2022-09-06T23:55:25.081Z,96.36
2022-09-06T23:58:10.306Z,96.29
